createdAt,value
2017-11-15T00:00:44.937Z,8.70
2017-11-15T00:03:14.039Z,8.90
2017-11-15T00:05:47.981Z,8.90
2017-11-15T00:08:16.949Z,8.90
2017-11-15T00:10:45.893Z,8.80
2017-11-15T00:13:14.835Z,8.80
2017-11-15T00:15:45.803Z,8.90
2017-11-15T00:18:15.563Z,8.80
2017-11-15T00:20:44.528Z,8.90
2017-11-15T00:23:13.460Z,8.90
2017-11-15T00:25:42.453Z,8.90
2017-11-15T00:28:11.402Z,8.90
2017-11-15T00:30:40.386Z,8.90
2017-11-15T00:33:09.324Z,8.80
2017-11-15T00:35:38.287Z,8.80
2017-11-15T00:38:07.276Z,8.80
2017-11-15T00:40:36.298Z,8.80
2017-11-15T00:43:05.274Z,8.80
2017-11-15T00:45:34.625Z,8.90
2017-11-15T00:48:04.380Z,8.90
2017-11-15T00:50:33.320Z,8.80
2017-11-15T00:53:02.299Z,8.90
2017-11-15T00:55:31.277Z,8.90
2017-11-15T00:58:02.173Z,11.90
2017-11-15T01:00:31.904Z,9.10
2017-11-15T01:03:01.742Z,9.10
2017-11-15T01:05:30.733Z,9.10
2017-11-15T01:07:59.714Z,9.10
2017-11-15T01:10:29.481Z,9.10
2017-11-15T01:12:59.246Z,9.00
2017-11-15T01:15:28.315Z,9.00
2017-11-15T01:17:57.256Z,9.10
2017-11-15T01:20:26.297Z,9.00
2017-11-15T01:22:55.270Z,8.90
2017-11-15T01:25:24.533Z,8.90
2017-11-15T01:27:53.535Z,8.90
2017-11-15T01:30:23.270Z,9.00
2017-11-15T01:32:52.341Z,9.00
2017-11-15T01:35:22.041Z,9.00
2017-11-15T01:37:51.382Z,9.00
2017-11-15T01:40:20.474Z,9.00
2017-11-15T01:42:49.422Z,8.90
2017-11-15T01:45:18.439Z,8.90
2017-11-15T01:47:47.419Z,8.90
2017-11-15T01:50:16.368Z,8.80
2017-11-15T01:52:45.517Z,8.70
2017-11-15T01:55:14.550Z,8.80
2017-11-15T01:57:43.615Z,8.80
2017-11-15T02:00:12.576Z,8.80
2017-11-15T02:02:41.533Z,8.80
2017-11-15T02:05:10.602Z,8.80
2017-11-15T02:07:39.589Z,8.80
2017-11-15T02:10:08.594Z,8.90
2017-11-15T02:12:37.608Z,8.90
2017-11-15T02:15:06.634Z,8.90
2017-11-15T02:17:35.602Z,8.90
2017-11-15T02:20:04.556Z,8.90
2017-11-15T02:22:33.636Z,8.90
2017-11-15T02:25:03.354Z,8.80
2017-11-15T02:27:34.013Z,8.80
2017-11-15T02:30:03.042Z,8.80
2017-11-15T02:32:32.019Z,8.80
2017-11-15T02:35:01.359Z,8.80
2017-11-15T02:37:32.000Z,8.80
2017-11-15T02:40:03.171Z,8.90
2017-11-15T02:42:32.286Z,8.90
2017-11-15T02:45:02.448Z,8.90
2017-11-15T02:47:33.559Z,8.90
2017-11-15T02:50:02.517Z,8.90
2017-11-15T02:52:31.498Z,8.90
2017-11-15T02:55:00.468Z,8.90
2017-11-15T02:57:30.227Z,9.10
2017-11-15T02:59:59.351Z,9.00
2017-11-15T03:02:28.298Z,9.00
2017-11-15T03:04:57.283Z,9.00
2017-11-15T03:07:26.346Z,9.00
2017-11-15T03:09:55.323Z,9.10
2017-11-15T03:12:24.268Z,9.20
2017-11-15T03:14:53.212Z,9.20
2017-11-15T03:17:22.219Z,9.10
2017-11-15T03:19:51.914Z,9.10
2017-11-15T03:22:21.182Z,9.10
2017-11-15T03:24:50.149Z,9.10
2017-11-15T03:27:19.267Z,9.20
2017-11-15T03:29:48.245Z,9.20
2017-11-15T03:32:17.232Z,9.20
2017-11-15T03:34:46.211Z,9.20
2017-11-15T03:37:15.247Z,9.20
2017-11-15T03:39:44.369Z,9.30
2017-11-15T03:42:14.124Z,9.30
2017-11-15T03:44:43.078Z,9.40
2017-11-15T03:47:12.832Z,9.40
2017-11-15T03:49:41.894Z,9.40
2017-11-15T03:52:11.634Z,9.40
2017-11-15T03:54:40.791Z,9.40
2017-11-15T03:57:10.571Z,9.40
2017-11-15T03:59:39.730Z,9.40
2017-11-15T04:02:08.686Z,9.40
2017-11-15T04:04:38.510Z,9.40
2017-11-15T04:07:08.209Z,9.40
2017-11-15T04:09:37.989Z,9.40
2017-11-15T04:12:06.936Z,9.50
2017-11-15T04:14:35.903Z,9.40
2017-11-15T04:17:05.648Z,9.30
2017-11-15T04:19:34.605Z,9.50
2017-11-15T04:22:04.364Z,9.50
2017-11-15T04:26:57.340Z,9.50
2017-11-15T04:29:26.624Z,9.50
2017-11-15T04:31:55.581Z,9.50
2017-11-15T04:34:25.299Z,9.50
2017-11-15T04:36:54.323Z,9.40
2017-11-15T04:39:23.278Z,9.40
2017-11-15T04:41:53.049Z,9.50
2017-11-15T04:44:22.814Z,9.50
2017-11-15T04:46:51.799Z,9.60
2017-11-15T04:49:20.741Z,9.60
2017-11-15T04:51:49.868Z,9.70
2017-11-15T04:54:18.940Z,9.50
2017-11-15T04:56:48.711Z,9.50
2017-11-15T04:59:18.060Z,9.40
2017-11-15T05:01:47.751Z,9.50
2017-11-15T05:04:16.907Z,9.40
2017-11-15T05:06:45.857Z,9.40
2017-11-15T05:09:15.596Z,9.40
2017-11-15T05:11:44.759Z,9.40
2017-11-15T05:14:16.156Z,9.40
2017-11-15T05:16:45.150Z,9.50
2017-11-15T05:19:14.182Z,9.50
2017-11-15T05:21:43.151Z,9.50
2017-11-15T05:24:13.287Z,9.50
2017-11-15T05:26:42.230Z,9.60
2017-11-15T05:29:11.615Z,9.60
2017-11-15T05:31:42.006Z,9.50
2017-11-15T05:34:11.007Z,9.50
2017-11-15T05:36:40.816Z,9.50
2017-11-15T05:39:10.059Z,9.50
2017-11-15T05:41:39.385Z,9.50
2017-11-15T05:44:08.440Z,9.60
2017-11-15T05:46:38.291Z,9.60
2017-11-15T05:49:07.730Z,9.60
2017-11-15T05:51:37.462Z,9.70
2017-11-15T05:54:07.199Z,9.60
2017-11-15T05:56:36.185Z,9.50
2017-11-15T05:59:05.311Z,9.40
2017-11-15T06:01:34.321Z,9.50
2017-11-15T06:04:03.298Z,9.50
2017-11-15T06:06:32.441Z,9.50
2017-11-15T06:09:01.434Z,9.50
2017-11-15T06:11:30.462Z,9.50
2017-11-15T06:13:59.395Z,9.50
2017-11-15T06:16:28.435Z,9.50
2017-11-15T06:18:57.873Z,9.60
2017-11-15T06:21:27.579Z,9.60
2017-11-15T06:23:56.577Z,9.70
2017-11-15T06:26:25.955Z,9.70
2017-11-15T06:28:56.293Z,9.60
2017-11-15T06:31:26.153Z,9.50
2017-11-15T06:33:55.556Z,9.50
2017-11-15T06:36:24.543Z,9.50
2017-11-15T06:38:53.482Z,9.60
2017-11-15T06:41:23.193Z,9.60
2017-11-15T06:43:52.587Z,9.60
2017-11-15T06:46:21.645Z,9.40
2017-11-15T06:48:50.630Z,9.40
2017-11-15T06:51:20.394Z,9.40
2017-11-15T06:53:49.409Z,9.50
2017-11-15T06:56:18.449Z,9.50
2017-11-15T06:58:47.462Z,9.50
2017-11-15T07:01:16.449Z,9.30
2017-11-15T07:03:45.462Z,9.40
2017-11-15T07:06:14.901Z,9.50
2017-11-15T07:08:43.852Z,9.50
2017-11-15T07:11:12.792Z,9.50
2017-11-15T07:13:42.547Z,9.50
2017-11-15T07:16:11.632Z,9.50
2017-11-15T07:18:40.687Z,9.50
2017-11-15T07:21:09.648Z,9.50
2017-11-15T07:23:39.100Z,9.50
2017-11-15T07:26:08.904Z,9.50
2017-11-15T07:28:38.651Z,9.60
2017-11-15T07:31:07.613Z,9.60
2017-11-15T07:33:37.351Z,9.50
2017-11-15T07:36:06.337Z,9.50
2017-11-15T07:38:35.422Z,9.60
2017-11-15T07:41:04.961Z,9.60
2017-11-15T07:43:33.980Z,9.50
2017-11-15T07:46:03.336Z,9.50
2017-11-15T07:48:32.749Z,9.50
2017-11-15T07:51:01.797Z,9.50
2017-11-15T07:53:31.570Z,9.50
2017-11-15T07:56:00.569Z,9.50
2017-11-15T07:58:29.547Z,9.60
2017-11-15T08:00:58.511Z,9.70
2017-11-15T08:03:27.579Z,9.60
2017-11-15T08:05:57.345Z,9.60
2017-11-15T08:08:26.748Z,9.70
2017-11-15T08:10:55.729Z,9.60
2017-11-15T08:13:24.688Z,9.60
2017-11-15T08:15:53.687Z,9.50
2017-11-15T08:18:23.536Z,9.50
2017-11-15T08:20:52.922Z,9.50
2017-11-15T08:23:22.339Z,9.50
2017-11-15T08:25:51.322Z,9.70
2017-11-15T08:28:20.345Z,9.60
2017-11-15T08:30:49.764Z,9.50
2017-11-15T08:33:19.515Z,9.60
2017-11-15T08:35:48.494Z,9.60
2017-11-15T08:38:18.193Z,9.70
2017-11-15T08:40:52.075Z,9.80
2017-11-15T08:43:22.360Z,9.80
2017-11-15T08:45:51.416Z,9.80
2017-11-15T08:48:22.355Z,9.70
2017-11-15T08:50:52.456Z,9.70
2017-11-15T08:53:21.587Z,9.60
2017-11-15T08:55:50.698Z,9.60
2017-11-15T08:58:20.605Z,9.60
2017-11-15T09:00:49.680Z,9.60
2017-11-15T09:03:19.736Z,9.60
2017-11-15T09:05:49.521Z,9.70
2017-11-15T09:08:19.191Z,9.70
2017-11-15T09:10:48.953Z,9.70
2017-11-15T09:13:18.820Z,9.70
2017-11-15T09:15:50.157Z,9.70
2017-11-15T09:18:20.162Z,9.70
2017-11-15T09:20:50.030Z,9.60
2017-11-15T09:23:19.275Z,9.60
2017-11-15T09:25:48.764Z,9.70
2017-11-15T09:28:20.235Z,9.70
2017-11-15T09:30:50.805Z,9.70
2017-11-15T09:33:22.389Z,9.80
2017-11-15T09:35:51.948Z,10.00
2017-11-15T09:38:21.846Z,9.90
2017-11-15T09:40:51.819Z,9.90
2017-11-15T09:43:21.672Z,9.90
2017-11-15T09:45:50.675Z,9.80
2017-11-15T09:48:19.690Z,9.80
2017-11-15T09:50:48.919Z,9.80
2017-11-15T09:53:18.802Z,10.00
2017-11-15T09:55:48.765Z,9.90
2017-11-15T09:58:18.524Z,9.80
2017-11-15T10:00:47.880Z,9.80
2017-11-15T10:03:23.710Z,9.70
2017-11-15T10:05:52.843Z,9.80
2017-11-15T10:08:21.954Z,9.80
2017-11-15T10:10:52.041Z,9.80
2017-11-15T10:13:22.040Z,9.80
2017-11-15T10:15:51.134Z,9.90
2017-11-15T10:18:21.200Z,9.90
2017-11-15T10:20:51.404Z,10.00
2017-11-15T10:23:22.398Z,10.10
2017-11-15T10:25:52.344Z,10.10
2017-11-15T10:28:22.248Z,10.10
2017-11-15T10:30:54.324Z,10.20
2017-11-15T10:33:23.887Z,10.10
2017-11-15T10:35:53.666Z,10.00
2017-11-15T10:38:24.972Z,9.90
2017-11-15T10:40:55.491Z,10.00
2017-11-15T10:43:25.597Z,10.10
2017-11-15T10:45:55.991Z,10.20
2017-11-15T10:48:25.789Z,10.30
2017-11-15T10:50:56.144Z,10.20
2017-11-15T10:53:25.971Z,10.10
2017-11-15T10:55:54.950Z,10.20
2017-11-15T10:58:24.726Z,10.20
2017-11-15T11:00:53.837Z,10.20
2017-11-15T11:03:23.666Z,10.30
2017-11-15T11:05:53.885Z,10.30
2017-11-15T11:08:23.758Z,10.30
2017-11-15T11:10:54.470Z,10.20
2017-11-15T11:13:23.506Z,10.30
2017-11-15T11:15:53.311Z,10.30
2017-11-15T11:18:22.460Z,10.30
2017-11-15T11:20:52.952Z,10.20
2017-11-15T11:23:23.467Z,10.20
2017-11-15T11:25:52.516Z,10.20
2017-11-15T11:28:21.593Z,10.00
2017-11-15T11:30:50.564Z,10.10
2017-11-15T11:33:20.661Z,10.30
2017-11-15T11:35:50.528Z,10.20
2017-11-15T11:38:19.918Z,10.10
2017-11-15T11:40:49.456Z,10.10
2017-11-15T11:43:18.948Z,10.20
2017-11-15T11:45:48.047Z,10.30
2017-11-15T11:48:17.974Z,10.40
2017-11-15T11:50:47.509Z,10.30
2017-11-15T11:53:18.348Z,10.20
2017-11-15T11:55:48.273Z,10.20
2017-11-15T11:58:18.932Z,10.40
2017-11-15T12:00:49.621Z,10.40
2017-11-15T12:03:20.386Z,10.50
2017-11-15T12:05:51.393Z,10.40
2017-11-15T12:08:20.454Z,10.50
2017-11-15T12:10:49.988Z,10.50
2017-11-15T12:13:20.267Z,10.40
2017-11-15T12:15:49.332Z,10.50
2017-11-15T12:18:19.196Z,10.40
2017-11-15T12:20:48.962Z,10.40
2017-11-15T12:23:19.393Z,10.50
2017-11-15T12:25:50.612Z,10.60
2017-11-15T12:28:20.134Z,10.60
2017-11-15T12:30:50.014Z,10.50
2017-11-15T12:33:19.880Z,10.60
2017-11-15T12:35:49.080Z,10.50
2017-11-15T12:38:18.271Z,10.40
2017-11-15T12:40:47.930Z,10.40
2017-11-15T12:43:18.055Z,10.40
2017-11-15T12:45:48.074Z,10.20
2017-11-15T12:48:17.221Z,10.30
2017-11-15T12:50:46.356Z,10.30
2017-11-15T12:53:15.356Z,10.30
2017-11-15T12:55:44.307Z,10.30
2017-11-15T12:58:13.309Z,10.50
2017-11-15T13:00:42.716Z,10.50
2017-11-15T13:03:12.475Z,10.50
2017-11-15T13:05:41.442Z,10.50
2017-11-15T13:08:11.234Z,10.50
2017-11-15T13:10:40.657Z,10.40
2017-11-15T13:13:10.414Z,10.40
2017-11-15T13:15:39.769Z,10.40
2017-11-15T13:18:09.547Z,10.30
2017-11-15T13:20:38.910Z,10.30
2017-11-15T13:23:08.642Z,10.30
2017-11-15T13:25:37.623Z,10.40
2017-11-15T13:28:06.587Z,10.40
2017-11-15T13:30:35.543Z,10.50
2017-11-15T13:33:04.621Z,10.40
2017-11-15T13:35:33.591Z,10.30
2017-11-15T13:38:02.593Z,10.30
2017-11-15T13:40:31.552Z,10.30
2017-11-15T13:43:01.276Z,10.40
2017-11-15T13:45:31.037Z,10.40
2017-11-15T13:47:59.975Z,10.40
2017-11-15T13:50:29.724Z,10.40
2017-11-15T13:53:04.644Z,10.40
2017-11-15T13:55:33.972Z,10.50
2017-11-15T13:58:02.986Z,10.40
2017-11-15T14:00:32.734Z,10.40
2017-11-15T14:03:02.547Z,10.40
2017-11-15T14:05:32.314Z,10.40
2017-11-15T14:08:02.067Z,10.40
2017-11-15T14:10:31.410Z,10.40
2017-11-15T14:13:00.381Z,10.50
2017-11-15T14:15:29.333Z,10.50
2017-11-15T14:17:58.710Z,10.60
2017-11-15T14:20:28.456Z,10.60
2017-11-15T14:22:57.517Z,10.50
2017-11-15T14:25:27.277Z,10.50
2017-11-15T14:27:56.641Z,10.60
2017-11-15T14:30:25.619Z,10.50
2017-11-15T14:32:55.346Z,10.50
2017-11-15T14:35:24.339Z,10.40
2017-11-15T14:37:54.134Z,10.50
2017-11-15T14:40:23.871Z,10.50
2017-11-15T14:42:53.616Z,8.90
2017-11-15T14:45:22.742Z,10.50
2017-11-15T14:47:52.100Z,10.50
2017-11-15T14:50:21.512Z,10.40
2017-11-15T14:52:50.512Z,10.50
2017-11-15T14:55:19.479Z,10.50
2017-11-15T14:57:48.510Z,10.50
2017-11-15T15:00:17.480Z,10.30
2017-11-15T15:02:46.515Z,10.40
2017-11-15T15:05:16.273Z,10.50
2017-11-15T15:07:45.261Z,10.50
2017-11-15T15:10:14.220Z,10.50
2017-11-15T15:12:44.129Z,10.40
2017-11-15T15:15:13.475Z,10.40
2017-11-15T15:17:42.618Z,10.50
2017-11-15T15:20:12.446Z,10.40
2017-11-15T15:22:42.227Z,10.30
2017-11-15T15:25:11.272Z,10.10
2017-11-15T15:27:40.249Z,10.10
2017-11-15T15:30:09.631Z,10.10
2017-11-15T15:32:39.361Z,10.10
2017-11-15T15:35:08.353Z,10.20
2017-11-15T15:37:37.387Z,10.20
2017-11-15T15:40:06.343Z,10.00
2017-11-15T15:42:35.751Z,10.10
2017-11-15T15:45:04.699Z,10.00
2017-11-15T15:47:34.452Z,10.10
2017-11-15T15:50:03.514Z,10.00
2017-11-15T15:52:33.270Z,10.00
2017-11-15T15:55:02.455Z,10.00
2017-11-15T15:57:31.413Z,10.10
2017-11-15T16:00:01.573Z,10.00
2017-11-15T16:02:31.460Z,10.10
2017-11-15T16:05:00.552Z,10.10
2017-11-15T16:07:30.321Z,10.10
2017-11-15T16:09:59.456Z,10.20
2017-11-15T16:12:29.283Z,10.20
2017-11-15T16:14:58.241Z,10.20
2017-11-15T16:17:27.977Z,10.10
2017-11-15T16:19:56.978Z,10.20
2017-11-15T16:22:26.726Z,10.10
2017-11-15T16:24:55.722Z,10.10
2017-11-15T16:27:24.708Z,10.10
2017-11-15T16:29:53.660Z,9.90
2017-11-15T16:32:23.369Z,9.90
2017-11-15T16:34:52.358Z,10.00
2017-11-15T16:37:21.336Z,9.90
2017-11-15T16:39:51.795Z,9.90
2017-11-15T16:42:20.772Z,10.00
2017-11-15T16:44:49.721Z,10.00
2017-11-15T16:47:18.710Z,10.00
2017-11-15T16:49:47.671Z,9.30
2017-11-15T16:52:16.670Z,10.00
2017-11-15T16:54:45.719Z,10.00
2017-11-15T16:57:14.678Z,10.00
2017-11-15T16:59:43.681Z,10.00
2017-11-15T17:02:12.770Z,10.00
2017-11-15T17:04:41.735Z,10.10
2017-11-15T17:07:10.694Z,10.10
2017-11-15T17:09:40.509Z,10.10
2017-11-15T17:12:09.869Z,10.00
2017-11-15T17:14:38.899Z,9.90
2017-11-15T17:17:07.923Z,9.90
2017-11-15T17:19:36.879Z,9.90
2017-11-15T17:22:06.681Z,10.00
2017-11-15T17:24:36.438Z,10.00
2017-11-15T17:27:05.423Z,10.20
2017-11-15T17:29:34.397Z,10.10
2017-11-15T17:32:03.348Z,10.10
2017-11-15T17:34:32.354Z,10.00
2017-11-15T17:37:02.054Z,10.00
2017-11-15T17:39:31.433Z,10.00
2017-11-15T17:42:00.428Z,10.00
2017-11-15T17:44:29.425Z,9.90
2017-11-15T17:46:58.417Z,9.90
2017-11-15T17:49:27.408Z,9.90
2017-11-15T17:51:56.375Z,9.90
2017-11-15T17:54:25.744Z,9.90
2017-11-15T17:56:54.724Z,9.90
2017-11-15T17:59:24.474Z,9.80
2017-11-15T18:01:53.428Z,9.90
2017-11-15T18:04:23.253Z,9.90
2017-11-15T18:06:52.245Z,9.90
2017-11-15T18:09:22.467Z,9.90
2017-11-15T18:11:51.833Z,9.90
2017-11-15T18:14:22.956Z,9.90
2017-11-15T18:16:52.091Z,9.80
2017-11-15T18:19:21.903Z,9.80
2017-11-15T18:21:51.322Z,9.80
2017-11-15T18:24:21.127Z,9.70
2017-11-15T18:26:50.861Z,9.80
2017-11-15T18:29:21.052Z,9.80
2017-11-15T18:31:50.422Z,10.00
2017-11-15T18:34:20.214Z,10.00
2017-11-15T18:36:49.204Z,10.00
2017-11-15T18:39:18.971Z,10.00
2017-11-15T18:41:48.327Z,10.00
2017-11-15T18:44:17.347Z,9.90
2017-11-15T18:46:46.361Z,9.50
2017-11-15T18:49:16.144Z,9.90
2017-11-15T18:51:45.140Z,9.90
2017-11-15T18:54:14.535Z,9.90
2017-11-15T18:56:43.572Z,9.90
2017-11-15T18:59:12.590Z,9.90
2017-11-15T19:01:41.539Z,9.80
2017-11-15T19:04:11.379Z,9.90
2017-11-15T19:06:40.458Z,9.90
2017-11-15T19:09:10.300Z,9.90
2017-11-15T19:11:39.903Z,9.90
2017-11-15T19:14:09.035Z,9.90
2017-11-15T19:16:39.079Z,9.90
2017-11-15T19:19:08.860Z,9.90
2017-11-15T19:21:39.424Z,9.70
2017-11-15T19:24:09.797Z,9.70
2017-11-15T19:26:39.578Z,9.80
2017-11-15T19:29:08.587Z,9.70
2017-11-15T19:31:37.579Z,9.70
2017-11-15T19:34:06.587Z,9.80
2017-11-15T19:36:35.603Z,9.70
2017-11-15T19:39:04.997Z,9.80
2017-11-15T19:41:33.988Z,9.70
2017-11-15T19:44:03.030Z,9.80
2017-11-15T19:46:33.246Z,10.50
2017-11-15T19:49:02.759Z,10.00
2017-11-15T19:51:32.548Z,10.10
2017-11-15T19:54:02.388Z,10.20
2017-11-15T19:56:31.403Z,10.10
2017-11-15T19:59:01.407Z,10.20
2017-11-15T20:01:30.461Z,10.20
2017-11-15T20:04:01.039Z,10.20
2017-11-15T20:06:30.087Z,10.20
2017-11-15T20:09:00.663Z,10.20
2017-11-15T20:11:30.672Z,10.30
2017-11-15T20:14:00.308Z,10.30
2017-11-15T20:16:30.298Z,10.30
2017-11-15T20:18:59.714Z,10.30
2017-11-15T20:21:28.802Z,10.30
2017-11-15T20:23:57.799Z,10.20
2017-11-15T20:26:26.826Z,10.20
2017-11-15T20:28:55.853Z,10.20
2017-11-15T20:31:24.866Z,10.20
2017-11-15T20:33:54.887Z,10.30
2017-11-15T20:36:23.995Z,10.20
2017-11-15T20:38:53.009Z,10.30
2017-11-15T20:41:22.695Z,10.20
2017-11-15T20:43:51.769Z,10.30
2017-11-15T20:46:20.864Z,10.30
2017-11-15T20:48:49.912Z,10.20
2017-11-15T20:51:18.940Z,10.20
2017-11-15T20:53:48.332Z,10.10
2017-11-15T20:56:19.087Z,10.10
2017-11-15T20:58:48.485Z,10.20
2017-11-15T21:01:17.526Z,10.10
2017-11-15T21:03:46.745Z,10.10
2017-11-15T21:06:17.291Z,10.00
2017-11-15T21:08:46.394Z,10.10
2017-11-15T21:11:15.425Z,10.10
2017-11-15T21:13:44.475Z,10.20
2017-11-15T21:16:13.500Z,10.10
2017-11-15T21:18:42.587Z,10.10
2017-11-15T21:21:11.617Z,10.00
2017-11-15T21:23:40.733Z,9.80
2017-11-15T21:26:10.165Z,9.60
2017-11-15T21:28:39.620Z,9.60
2017-11-15T21:31:08.681Z,9.70
2017-11-15T21:33:37.687Z,9.70
2017-11-15T21:36:07.477Z,9.80
2017-11-15T21:38:36.467Z,9.70
2017-11-15T21:41:06.155Z,9.60
2017-11-15T21:43:35.161Z,9.70
2017-11-15T21:46:04.130Z,9.60
2017-11-15T21:48:33.138Z,9.50
2017-11-15T21:51:02.514Z,9.50
2017-11-15T21:53:32.270Z,9.40
2017-11-15T21:56:01.395Z,9.50
2017-11-15T21:58:30.798Z,9.50
2017-11-15T22:01:01.388Z,9.50
2017-11-15T22:03:30.352Z,9.50
2017-11-15T22:06:00.122Z,9.50
2017-11-15T22:08:29.475Z,9.60
2017-11-15T22:10:58.502Z,9.50
2017-11-15T22:13:27.489Z,9.50
2017-11-15T22:15:56.482Z,9.60
2017-11-15T22:18:26.633Z,9.40
2017-11-15T22:20:55.590Z,9.30
2017-11-15T22:23:25.318Z,9.30
2017-11-15T22:25:54.319Z,9.40
2017-11-15T22:28:23.303Z,9.50
2017-11-15T22:30:52.650Z,9.50
2017-11-15T22:33:22.397Z,9.50
2017-11-15T22:35:51.453Z,9.50
2017-11-15T22:38:21.208Z,9.60
2017-11-15T22:40:50.565Z,9.60
2017-11-15T22:43:19.556Z,9.70
2017-11-15T22:45:49.595Z,9.70
2017-11-15T22:48:19.334Z,9.70
2017-11-15T22:50:49.085Z,9.70
2017-11-15T22:53:18.838Z,9.70
2017-11-15T22:55:47.801Z,9.70
2017-11-15T22:58:16.781Z,9.70
2017-11-15T23:00:46.143Z,9.70
2017-11-15T23:03:15.082Z,9.70
2017-11-15T23:05:44.062Z,9.70
2017-11-15T23:08:13.418Z,9.70
2017-11-15T23:10:42.813Z,9.70
2017-11-15T23:13:12.753Z,9.60
2017-11-15T23:15:42.697Z,9.50
2017-11-15T23:18:12.443Z,9.50
2017-11-15T23:20:41.819Z,9.40
2017-11-15T23:23:11.580Z,9.40
2017-11-15T23:25:40.524Z,9.50
2017-11-15T23:28:09.530Z,9.50
2017-11-15T23:30:38.502Z,9.40
2017-11-15T23:33:07.910Z,9.40
2017-11-15T23:35:36.852Z,9.40
2017-11-15T23:38:05.883Z,9.30
2017-11-15T23:40:35.591Z,9.30
2017-11-15T23:43:05.335Z,9.30
2017-11-15T23:45:34.320Z,9.40
2017-11-15T23:48:03.262Z,9.30
2017-11-15T23:50:32.650Z,9.30
2017-11-15T23:53:01.627Z,9.30
2017-11-15T23:55:30.582Z,9.30
2017-11-15T23:58:00.000Z,9.40
